Time;durP1;ratioP1;P1;durP2;ratioP2;P2;SDS_P1;SDS_P2;PMS_P1;PMS_P2;Temp;Humidity;BMP_temperature;BMP_pressure;BME280_temperature;BME280_humidity;BME280_pressure;Samples;Min_cycle;Max_cycle;Signal;HPM_P1;HPM_P2
2023/05/31 00:17:15;;;;;;;4.03;2.80;;;12.70;81.00;;;;;;4891074;29;20215;-80
2023/05/31 01:08:00;;;;;;;4.43;2.90;;;11.70;83.50;;;;;;4743748;30;20237;-78
2023/05/31 01:43:52;;;;;;;6.27;3.17;;;11.50;83.80;;;;;;4876094;28;20219;-82
2023/05/31 01:48:12;;;;;;;5.90;2.50;;;11.30;84.20;;;;;;5018397;28;20192;-81
2023/05/31 02:08:59;;;;;;;4.70;2.13;;;11.20;83.70;;;;;;4922401;29;20286;-81
2023/05/31 02:33:56;;;;;;;4.40;2.30;;;11.00;85.80;;;;;;4725235;30;20680;-79
2023/05/31 02:59:51;;;;;;;4.03;2.23;;;10.90;86.70;;;;;;4787721;29;20244;-85
2023/05/31 03:25:12;;;;;;;5.33;2.10;;;11.30;86.00;;;;;;4817183;29;20291;-82
2023/05/31 03:55:08;;;;;;;4.67;2.50;;;11.70;85.40;;;;;;4802232;29;20214;-82
2023/05/31 04:15:22;;;;;;;5.27;2.10;;;11.90;85.80;;;;;;4679823;30;20724;-83
2023/05/31 04:36:08;;;;;;;3.67;1.73;;;12.50;83.10;;;;;;4709487;29;20260;-85
2023/05/31 05:01:24;;;;;;;7.10;2.00;;;13.20;80.80;;;;;;4812281;29;20241;-84
2023/05/31 05:21:56;;;;;;;3.97;1.90;;;13.30;81.00;;;;;;4803881;29;20287;-83
2023/05/31 05:47:11;;;;;;;5.67;2.57;;;14.30;77.90;;;;;;4851215;29;20218;-84
2023/05/31 06:17:26;;;;;;;5.97;2.20;;;15.90;61.80;;;;;;4738936;29;20203;-85
2023/05/31 07:18:24;;;;;;;2.67;1.40;;;16.90;43.90;;;;;;4669821;29;20780;-85
2023/05/31 07:38:55;;;;;;;3.00;1.63;;;17.50;42.20;;;;;;4774271;29;20260;-85
2023/05/31 07:43:20;;;;;;;3.53;1.53;;;17.60;41.40;;;;;;4732345;29;20499;-86
2023/05/31 08:09:08;;;;;;;2.80;1.13;;;18.30;37.60;;;;;;4704233;29;20566;-83
2023/05/31 08:49:48;;;;;;;2.57;1.20;;;19.10;32.60;;;;;;4884054;28;20787;-85
2023/05/31 09:14:58;;;;;;;3.00;1.13;;;19.60;32.60;;;;;;4639361;29;20215;-85
2023/05/31 09:35:13;;;;;;;2.03;1.20;;;19.20;32.80;;;;;;4623496;29;20502;-83
2023/05/31 09:55:51;;;;;;;2.53;1.43;;;19.60;33.40;;;;;;4671304;29;20823;-84
2023/05/31 10:20:59;;;;;;;1.40;1.30;;;20.00;32.70;;;;;;4719914;29;20224;-83
2023/05/31 11:26:28;;;;;;;2.85;1.50;;;20.90;33.60;;;;;;4605029;30;20470;-84
2023/05/31 11:47:06;;;;;;;1.63;1.52;;;20.80;34.60;;;;;;4815111;28;20201;-86
2023/05/31 12:07:47;;;;;;;2.95;1.67;;;21.50;32.70;;;;;;4739691;29;20284;-81
2023/05/31 12:38:05;;;;;;;3.00;1.80;;;21.90;32.90;;;;;;4824097;29;20474;-81
2023/05/31 13:08:23;;;;;;;2.45;1.80;;;24.20;32.70;;;;;;4746763;29;20210;-82
2023/05/31 13:49:01;;;;;;;3.55;1.80;;;25.50;30.30;;;;;;4613392;30;20274;-82
2023/05/31 14:14:34;;;;;;;1.98;1.77;;;30.90;31.60;;;;;;4598196;30;20217;-81
2023/05/31 14:18:54;;;;;;;2.00;1.80;;;31.10;30.20;;;;;;4575025;30;20774;-83
2023/05/31 14:39:14;;;;;;;2.47;2.00;;;32.10;30.00;;;;;;4616918;29;20247;-81
2023/05/31 15:04:34;;;;;;;4.60;1.75;;;31.70;30.40;;;;;;4606303;30;21078;-87
2023/05/31 15:30:30;;;;;;;1.95;1.60;;;32.60;29.50;;;;;;4617406;30;20435;-81
2023/05/31 16:00:59;;;;;;;2.42;1.83;;;31.40;28.30;;;;;;4617620;30;20213;-83
2023/05/31 16:26:02;;;;;;;2.50;1.95;;;22.90;28.70;;;;;;4537058;30;20262;-80
2023/05/31 16:41:34;;;;;;;2.63;1.98;;;22.20;29.30;;;;;;4587375;30;20251;-84
2023/05/31 17:06:40;;;;;;;7.57;2.10;;;21.60;31.20;;;;;;4661407;30;20234;-84
2023/05/31 17:27:10;;;;;;;4.80;1.90;;;21.10;31.90;;;;;;4574533;30;20714;-85
2023/05/31 18:12:47;;;;;;;4.23;2.20;;;19.60;33.30;;;;;;4884353;28;20236;-83
2023/05/31 18:43:13;;;;;;;4.53;2.30;;;18.40;37.20;;;;;;4828576;29;20203;-84
2023/05/31 19:08:25;;;;;;;4.83;2.47;;;16.80;39.10;;;;;;4619257;30;20206;-85
2023/05/31 19:28:34;;;;;;;3.53;2.90;;;15.80;41.10;;;;;;4594670;30;20536;-81
2023/05/31 19:59:12;;;;;;;5.30;3.40;;;15.00;45.60;;;;;;4679064;30;21209;-82
2023/05/31 20:19:38;;;;;;;7.93;4.37;;;14.40;68.90;;;;;;4596685;30;20209;-84
2023/05/31 21:20:15;;;;;;;8.97;4.27;;;13.60;78.80;;;;;;4709009;30;20266;-82
2023/05/31 21:45:33;;;;;;;5.67;3.97;;;13.20;81.10;;;;;;4715837;30;20258;-84
2023/05/31 22:01:00;;;;;;;8.90;4.20;;;12.80;84.70;;;;;;4633172;30;20358;-85
2023/05/31 22:25:46;;;;;;;5.30;3.80;;;12.20;85.40;;;;;;4529025;31;20302;-86
2023/05/31 22:51:44;;;;;;;6.07;4.27;;;12.10;85.20;;;;;;5837186;23;20258;-83
2023/05/31 23:16:58;;;;;;;10.13;4.67;;;11.50;87.90;;;;;;4773382;29;20233;-83
2023/05/31 23:57:36;;;;;;;9.37;4.63;;;10.80;92.30;;;;;;4927121;28;20199;-82
